Time;durP1;ratioP1;P1;durP2;ratioP2;P2;SDS_P1;SDS_P2;PMS_P1;PMS_P2;Temp;Humidity;BMP_temperature;BMP_pressure;BME280_temperature;BME280_humidity;BME280_pressure;Samples;Min_cycle;Max_cycle;Signal;HPM_P1;HPM_P2
2022/07/08 00:01:10;;;;;;;11.03;2.70;;;14.30;99.90;;;;;;5010554;28;20516;-73
2022/07/08 00:03:37;;;;;;;11.60;2.83;;;14.30;99.90;;;;;;5000636;28;20501;-73
2022/07/08 00:06:04;;;;;;;13.27;3.20;;;14.20;99.90;;;;;;5005543;28;20478;-73
2022/07/08 00:08:32;;;;;;;9.23;2.90;;;14.20;99.90;;;;;;4991463;28;20462;-73
2022/07/08 00:10:59;;;;;;;6.77;2.60;;;14.10;99.90;;;;;;5007920;28;20546;-74
2022/07/08 00:13:26;;;;;;;10.43;3.67;;;14.10;99.90;;;;;;4993545;28;20968;-74
2022/07/08 00:15:53;;;;;;;9.20;3.20;;;14.00;99.90;;;;;;5004342;28;21030;-74
2022/07/08 00:18:21;;;;;;;6.60;3.20;;;14.00;99.90;;;;;;4989469;28;20447;-74
2022/07/08 00:20:48;;;;;;;6.53;3.10;;;14.00;99.90;;;;;;5008881;28;20557;-74
2022/07/08 00:23:14;;;;;;;10.30;2.60;;;13.90;99.90;;;;;;5006536;28;20463;-74
2022/07/08 00:25:41;;;;;;;8.17;2.77;;;13.90;99.90;;;;;;5007296;28;21007;-73
2022/07/08 00:28:08;;;;;;;7.57;2.80;;;13.90;99.90;;;;;;4995150;28;20455;-74
2022/07/08 00:30:34;;;;;;;8.70;2.67;;;13.90;99.90;;;;;;5001262;28;20432;-74
2022/07/08 00:33:01;;;;;;;15.20;2.80;;;13.80;99.90;;;;;;4996562;28;20463;-74
2022/07/08 00:35:29;;;;;;;14.73;3.10;;;13.80;99.90;;;;;;5005390;28;20524;-74
2022/07/08 00:37:56;;;;;;;5.13;2.53;;;13.70;99.90;;;;;;5005395;28;20455;-73
2022/07/08 00:40:22;;;;;;;5.63;2.50;;;13.70;99.90;;;;;;4992981;28;20522;-74
2022/07/08 00:42:49;;;;;;;8.20;2.73;;;13.60;99.90;;;;;;5000184;28;20437;-74
2022/07/08 00:45:16;;;;;;;8.03;2.40;;;13.60;99.90;;;;;;4994371;28;20907;-73
2022/07/08 00:47:43;;;;;;;5.20;2.50;;;13.60;99.90;;;;;;4995010;28;20542;-74
2022/07/08 00:50:10;;;;;;;11.23;3.10;;;13.50;99.90;;;;;;5003495;28;21141;-74
2022/07/08 00:52:39;;;;;;;4.80;2.90;;;13.60;99.90;;;;;;5005594;28;20865;-73
2022/07/08 00:55:07;;;;;;;5.93;2.67;;;13.50;99.90;;;;;;4991764;28;21057;-73
2022/07/08 00:57:36;;;;;;;12.10;2.87;;;13.50;99.90;;;;;;4992657;28;20443;-74
2022/07/08 01:00:04;;;;;;;7.77;2.50;;;13.50;99.90;;;;;;5006700;28;20481;-74
2022/07/08 01:02:31;;;;;;;6.93;2.60;;;13.50;99.90;;;;;;4997411;28;20463;-73
2022/07/08 01:04:58;;;;;;;8.03;2.70;;;13.50;99.90;;;;;;5008770;28;20506;-73
2022/07/08 01:07:25;;;;;;;8.80;2.90;;;13.40;99.90;;;;;;5006636;28;20518;-73
2022/07/08 01:09:53;;;;;;;4.83;2.80;;;13.40;99.90;;;;;;5009060;28;20443;-74
2022/07/08 01:12:19;;;;;;;13.70;2.93;;;13.30;99.90;;;;;;5001978;28;20454;-74
2022/07/08 01:14:46;;;;;;;4.17;2.63;;;13.20;99.90;;;;;;5006652;28;20462;-74
2022/07/08 01:17:13;;;;;;;8.30;3.00;;;13.20;99.90;;;;;;5003556;28;20422;-74
2022/07/08 01:19:39;;;;;;;7.30;2.67;;;13.20;99.90;;;;;;4993487;28;20869;-74
2022/07/08 01:22:07;;;;;;;13.30;2.70;;;13.20;99.90;;;;;;5003735;28;20450;-74
2022/07/08 01:24:34;;;;;;;9.30;3.20;;;13.20;99.90;;;;;;5001147;28;20514;-74
2022/07/08 01:27:00;;;;;;;9.37;3.00;;;13.20;99.90;;;;;;4997623;28;20510;-73
2022/07/08 01:29:28;;;;;;;6.07;2.50;;;13.10;99.90;;;;;;5002782;28;20483;-74
2022/07/08 01:31:55;;;;;;;7.00;2.77;;;13.10;99.90;;;;;;5004505;28;20442;-74
2022/07/08 01:34:22;;;;;;;9.33;3.03;;;13.00;99.90;;;;;;5009100;28;20513;-74
2022/07/08 01:36:48;;;;;;;7.63;2.80;;;13.00;99.90;;;;;;4997785;28;20482;-74
2022/07/08 01:39:16;;;;;;;5.63;2.50;;;12.90;99.90;;;;;;4991528;28;20954;-74
2022/07/08 01:41:43;;;;;;;7.03;3.00;;;12.90;99.90;;;;;;4995498;28;20563;-74
2022/07/08 01:44:10;;;;;;;5.00;2.40;;;12.80;99.90;;;;;;4991841;28;20451;-74
2022/07/08 01:46:36;;;;;;;10.70;2.93;;;12.70;99.90;;;;;;5002732;28;20541;-74
2022/07/08 01:49:03;;;;;;;6.43;2.67;;;12.70;99.90;;;;;;5004208;28;21019;-73
2022/07/08 01:51:30;;;;;;;8.23;2.87;;;12.70;99.90;;;;;;5009812;28;20458;-74
2022/07/08 01:53:56;;;;;;;6.00;2.53;;;12.60;99.90;;;;;;4994418;28;20505;-74
2022/07/08 01:56:24;;;;;;;7.63;3.20;;;12.60;99.90;;;;;;5008914;28;20510;-74
2022/07/08 01:58:51;;;;;;;6.50;2.83;;;12.60;99.90;;;;;;4994912;28;21017;-74
2022/07/08 02:01:17;;;;;;;6.30;3.00;;;12.50;99.90;;;;;;4992238;28;20513;-74
2022/07/08 02:03:44;;;;;;;10.93;2.70;;;12.50;99.90;;;;;;4993143;28;20451;-74
2022/07/08 02:06:11;;;;;;;15.40;3.13;;;12.40;99.90;;;;;;5001798;28;20480;-74
2022/07/08 02:08:37;;;;;;;9.73;3.10;;;12.40;99.90;;;;;;5009618;28;21002;-74
2022/07/08 02:13:50;;;;;;;5.77;3.27;;;12.30;99.90;;;;;;4991357;28;20961;-74
2022/07/08 02:16:16;;;;;;;12.50;3.00;;;12.30;99.90;;;;;;4994651;28;20470;-74
2022/07/08 02:18:43;;;;;;;8.50;2.80;;;12.30;99.90;;;;;;5000020;28;20455;-74
2022/07/08 02:21:10;;;;;;;17.37;3.00;;;12.20;99.90;;;;;;4991447;28;20487;-74
2022/07/08 02:23:36;;;;;;;10.53;3.13;;;12.20;99.90;;;;;;4995966;28;20455;-73
2022/07/08 02:26:03;;;;;;;10.60;2.83;;;12.30;99.90;;;;;;4993048;28;20486;-74
2022/07/08 02:28:29;;;;;;;8.00;3.33;;;12.30;99.90;;;;;;4999696;28;20489;-74
2022/07/08 02:30:57;;;;;;;11.83;2.80;;;12.30;99.90;;;;;;5007257;28;20501;-74
2022/07/08 02:33:24;;;;;;;14.37;3.77;;;12.40;99.90;;;;;;5006467;28;20477;-74
2022/07/08 02:35:51;;;;;;;5.60;2.80;;;12.40;99.90;;;;;;5000913;28;20520;-73
2022/07/08 02:38:17;;;;;;;7.70;2.70;;;12.40;99.90;;;;;;4994294;28;20509;-74
2022/07/08 02:40:44;;;;;;;16.40;2.57;;;12.50;99.90;;;;;;4995386;28;20496;-74
2022/07/08 02:43:11;;;;;;;9.03;2.70;;;12.50;99.90;;;;;;5008926;28;20450;-74
2022/07/08 02:45:38;;;;;;;16.70;3.63;;;12.60;99.90;;;;;;5003601;28;20847;-74
2022/07/08 02:48:07;;;;;;;9.17;2.90;;;12.60;99.90;;;;;;4995235;28;20932;-74
2022/07/08 02:50:33;;;;;;;7.10;2.60;;;12.70;99.90;;;;;;4995305;28;20447;-74
2022/07/08 02:53:00;;;;;;;6.50;2.73;;;12.80;99.90;;;;;;5003194;28;20826;-74
2022/07/08 02:55:27;;;;;;;8.93;3.00;;;12.90;99.90;;;;;;5007290;28;20504;-74
2022/07/08 02:57:53;;;;;;;8.97;2.83;;;13.00;99.90;;;;;;5002064;28;20505;-74
2022/07/08 03:00:20;;;;;;;6.93;2.40;;;13.00;99.90;;;;;;4998373;28;20454;-74
2022/07/08 03:02:47;;;;;;;9.07;2.90;;;13.10;99.90;;;;;;4997653;28;20457;-73
2022/07/08 03:05:15;;;;;;;10.60;2.50;;;13.10;99.90;;;;;;5006648;28;20489;-73
2022/07/08 03:07:41;;;;;;;7.10;2.87;;;13.20;99.90;;;;;;5000822;28;20459;-74
2022/07/08 03:10:09;;;;;;;9.43;2.90;;;13.20;99.90;;;;;;4994392;28;20451;-74
2022/07/08 03:12:35;;;;;;;7.33;3.00;;;13.20;99.90;;;;;;5001056;28;20505;-74
2022/07/08 03:15:02;;;;;;;10.10;2.30;;;13.30;99.90;;;;;;5010195;28;20477;-74
2022/07/08 03:17:29;;;;;;;6.97;2.60;;;13.30;99.90;;;;;;4997549;28;20494;-74
2022/07/08 03:19:55;;;;;;;7.43;2.60;;;13.40;99.90;;;;;;4994428;28;20459;-74
2022/07/08 03:22:23;;;;;;;3.60;2.20;;;13.40;99.90;;;;;;4996172;28;20838;-73
2022/07/08 03:24:50;;;;;;;7.23;2.90;;;13.40;99.90;;;;;;4992926;28;20510;-74
2022/07/08 03:27:17;;;;;;;11.93;3.03;;;13.50;99.90;;;;;;5005923;28;20508;-74
2022/07/08 03:29:43;;;;;;;11.90;2.80;;;13.50;99.90;;;;;;4995423;28;20458;-74
2022/07/08 03:32:10;;;;;;;6.70;2.57;;;13.50;99.90;;;;;;4996486;28;20443;-74
2022/07/08 03:34:36;;;;;;;10.07;3.20;;;13.50;99.90;;;;;;5007880;28;20849;-74
2022/07/08 03:37:03;;;;;;;5.00;2.43;;;13.60;99.90;;;;;;4998219;28;20466;-74
2022/07/08 03:39:31;;;;;;;6.07;2.27;;;13.60;99.90;;;;;;5009220;28;20454;-74
2022/07/08 03:41:57;;;;;;;8.03;2.20;;;13.60;99.90;;;;;;5011943;28;20494;-74
2022/07/08 03:44:24;;;;;;;5.60;2.30;;;13.60;99.90;;;;;;4999736;28;20790;-74
2022/07/08 03:46:51;;;;;;;5.43;2.63;;;13.60;99.90;;;;;;5006401;28;20781;-74
2022/07/08 03:49:17;;;;;;;7.43;2.20;;;13.60;99.90;;;;;;4998899;28;20458;-74
2022/07/08 03:51:44;;;;;;;9.93;2.83;;;13.60;99.90;;;;;;4998482;28;20886;-71
2022/07/08 03:54:11;;;;;;;10.63;3.40;;;13.70;99.90;;;;;;4994287;28;20971;-71
2022/07/08 03:56:39;;;;;;;6.13;2.60;;;13.70;99.90;;;;;;4994097;28;20522;-72
2022/07/08 03:59:05;;;;;;;8.17;2.90;;;13.80;99.90;;;;;;4993525;28;20551;-72
2022/07/08 04:01:32;;;;;;;7.30;2.53;;;13.80;99.90;;;;;;4993789;28;20961;-72
2022/07/08 04:03:58;;;;;;;5.87;2.30;;;13.80;99.90;;;;;;5002834;28;20462;-72
2022/07/08 04:06:25;;;;;;;8.23;2.80;;;13.80;99.90;;;;;;5000215;28;20982;-72
2022/07/08 04:08:52;;;;;;;8.03;2.70;;;13.80;99.90;;;;;;5006269;28;21021;-72
2022/07/08 04:11:18;;;;;;;6.33;2.70;;;13.80;99.90;;;;;;5002846;28;20450;-72
2022/07/08 04:13:47;;;;;;;6.73;2.57;;;13.80;99.90;;;;;;5003998;28;20507;-72
2022/07/08 04:16:13;;;;;;;11.20;3.17;;;13.80;99.90;;;;;;5001018;28;20482;-72
2022/07/08 04:18:41;;;;;;;11.93;2.97;;;13.80;99.90;;;;;;4997660;28;20454;-72
2022/07/08 04:21:08;;;;;;;9.20;2.43;;;13.80;99.90;;;;;;4997600;28;21036;-71
2022/07/08 04:23:35;;;;;;;13.50;3.13;;;13.90;99.90;;;;;;4997247;28;20880;-72
2022/07/08 04:26:02;;;;;;;8.07;2.30;;;13.90;99.90;;;;;;5004143;28;20465;-71
2022/07/08 04:28:29;;;;;;;4.30;2.30;;;13.90;99.90;;;;;;4997497;28;20451;-71
2022/07/08 04:30:57;;;;;;;6.07;2.47;;;14.00;99.90;;;;;;4992802;28;20502;-71
2022/07/08 04:33:24;;;;;;;6.67;2.53;;;14.00;99.90;;;;;;4996847;28;21077;-71
2022/07/08 04:35:50;;;;;;;5.80;2.40;;;14.00;99.90;;;;;;4989550;28;20467;-71
2022/07/08 04:38:17;;;;;;;10.93;2.67;;;14.00;99.90;;;;;;4995663;28;20993;-71
2022/07/08 04:40:44;;;;;;;3.63;2.20;;;14.00;99.90;;;;;;5000534;28;20455;-71
2022/07/08 04:43:12;;;;;;;6.47;2.40;;;14.00;99.90;;;;;;5000368;28;20450;-72
2022/07/08 04:45:39;;;;;;;10.37;2.73;;;14.00;99.90;;;;;;5004059;28;20474;-72
2022/07/08 04:48:07;;;;;;;8.63;2.80;;;14.00;99.90;;;;;;5005949;28;20433;-72
2022/07/08 04:50:33;;;;;;;3.60;2.20;;;14.10;99.90;;;;;;5006574;28;20462;-71
2022/07/08 04:53:00;;;;;;;10.10;2.37;;;14.10;99.90;;;;;;5010568;28;21012;-72
2022/07/08 04:55:30;;;;;;;11.80;3.10;;;14.20;99.90;;;;;;5003221;28;20475;-71
2022/07/08 04:57:59;;;;;;;11.17;2.80;;;14.20;99.90;;;;;;4991309;28;20467;-71
2022/07/08 05:00:26;;;;;;;11.30;2.67;;;14.20;99.90;;;;;;5006695;28;20496;-72
2022/07/08 05:02:53;;;;;;;6.47;2.50;;;14.30;99.90;;;;;;5002769;28;20495;-72
2022/07/08 05:05:21;;;;;;;5.60;2.27;;;14.30;99.90;;;;;;4992309;28;20473;-72
2022/07/08 05:07:48;;;;;;;6.43;2.53;;;14.30;99.90;;;;;;4992208;28;20543;-72
2022/07/08 05:10:16;;;;;;;6.27;2.50;;;14.30;99.90;;;;;;5009075;28;20457;-71
2022/07/08 05:12:43;;;;;;;11.23;2.67;;;14.40;99.90;;;;;;4995739;28;20989;-73
2022/07/08 05:15:11;;;;;;;10.30;2.60;;;14.50;99.90;;;;;;5000087;28;20479;-74
2022/07/08 05:17:37;;;;;;;5.10;2.50;;;14.70;99.90;;;;;;4993823;28;20447;-74
2022/07/08 05:20:05;;;;;;;6.80;2.77;;;15.10;99.90;;;;;;4997843;28;20537;-74
2022/07/08 05:22:33;;;;;;;8.57;2.10;;;15.30;99.90;;;;;;5001667;28;20456;-72
2022/07/08 05:24:59;;;;;;;7.20;2.30;;;15.40;99.90;;;;;;4988292;28;20235;-72
2022/07/08 05:27:26;;;;;;;6.00;2.23;;;15.40;99.90;;;;;;4988030;28;20877;-72
2022/07/08 05:29:53;;;;;;;5.43;2.50;;;15.30;99.90;;;;;;4989095;28;20874;-72
2022/07/08 05:32:19;;;;;;;6.70;2.60;;;15.30;99.90;;;;;;4989046;28;20459;-72
2022/07/08 05:34:46;;;;;;;3.40;2.07;;;15.30;99.90;;;;;;4990291;28;20811;-72
2022/07/08 05:37:13;;;;;;;8.67;2.53;;;15.30;99.90;;;;;;4990700;28;20513;-72
2022/07/08 05:39:41;;;;;;;6.47;2.50;;;15.30;99.90;;;;;;4991976;28;20421;-72
2022/07/08 05:42:09;;;;;;;11.93;2.97;;;15.40;99.90;;;;;;4992047;28;20508;-71
2022/07/08 05:44:36;;;;;;;10.83;2.43;;;15.40;99.90;;;;;;4991843;28;20509;-72
2022/07/08 05:47:03;;;;;;;9.57;2.43;;;15.40;99.90;;;;;;4991870;28;20459;-72
2022/07/08 05:49:30;;;;;;;12.57;3.30;;;15.40;99.90;;;;;;4992178;28;20445;-72
2022/07/08 05:51:56;;;;;;;10.80;2.80;;;15.50;99.90;;;;;;4992184;28;21045;-72
2022/07/08 05:54:23;;;;;;;9.20;2.80;;;15.50;99.90;;;;;;4991977;28;20845;-72
2022/07/08 05:56:51;;;;;;;7.63;2.53;;;15.50;99.90;;;;;;4991809;28;20457;-72
2022/07/08 05:59:18;;;;;;;8.67;2.57;;;15.50;99.90;;;;;;4992085;28;20463;-71
2022/07/08 06:01:44;;;;;;;4.70;2.43;;;15.60;99.90;;;;;;4992349;28;20458;-72
2022/07/08 06:04:11;;;;;;;6.67;2.47;;;15.60;99.90;;;;;;4991734;28;20455;-72
2022/07/08 06:06:38;;;;;;;10.17;2.30;;;15.60;99.90;;;;;;4991650;28;20995;-72
2022/07/08 06:09:05;;;;;;;12.30;2.23;;;15.60;99.90;;;;;;4992201;28;20426;-72
2022/07/08 06:11:31;;;;;;;6.20;2.10;;;15.70;99.90;;;;;;4993316;28;20476;-72
2022/07/08 06:13:59;;;;;;;11.40;2.50;;;15.70;99.90;;;;;;4995867;28;20496;-72
2022/07/08 06:16:26;;;;;;;5.83;2.20;;;15.70;99.90;;;;;;4979857;28;20537;-72
2022/07/08 06:18:53;;;;;;;6.10;2.03;;;15.80;99.90;;;;;;4996135;28;20480;-71
2022/07/08 06:21:20;;;;;;;5.80;2.30;;;15.90;99.90;;;;;;4995780;28;20875;-72
2022/07/08 06:23:46;;;;;;;4.00;2.17;;;15.90;99.90;;;;;;4995634;28;20418;-72
2022/07/08 06:26:13;;;;;;;7.80;2.33;;;16.00;99.90;;;;;;4995467;28;20453;-72
2022/07/08 06:28:40;;;;;;;8.07;2.90;;;16.00;99.90;;;;;;4994419;28;20765;-72
2022/07/08 06:31:08;;;;;;;6.67;2.27;;;16.00;99.90;;;;;;4995719;28;20426;-72
2022/07/08 06:33:34;;;;;;;7.53;2.00;;;16.10;99.90;;;;;;4995191;28;20802;-72
2022/07/08 06:36:01;;;;;;;6.20;1.90;;;16.20;99.90;;;;;;4995165;28;20438;-72
2022/07/08 06:38:28;;;;;;;8.33;2.23;;;16.30;99.90;;;;;;4995877;28;20429;-72
2022/07/08 06:40:54;;;;;;;9.40;2.53;;;16.40;99.90;;;;;;4995439;28;20517;-72
2022/07/08 06:43:21;;;;;;;8.93;2.27;;;16.50;99.90;;;;;;4995474;28;20529;-71
2022/07/08 06:45:47;;;;;;;8.57;2.10;;;16.50;99.90;;;;;;4990990;28;20517;-72
2022/07/08 06:48:15;;;;;;;9.27;2.17;;;16.50;99.90;;;;;;4995541;28;20882;-72
2022/07/08 06:50:42;;;;;;;14.03;3.10;;;16.40;99.90;;;;;;4994740;28;20872;-72
2022/07/08 06:53:09;;;;;;;8.70;2.53;;;16.40;99.90;;;;;;4995354;28;21017;-71
2022/07/08 06:55:36;;;;;;;7.13;2.40;;;16.40;99.90;;;;;;4995475;28;20479;-72
2022/07/08 06:58:02;;;;;;;6.93;2.10;;;16.50;99.90;;;;;;4995513;28;20484;-72
2022/07/08 07:00:30;;;;;;;8.87;2.60;;;16.60;99.90;;;;;;4994791;28;20775;-72
2022/07/08 07:02:57;;;;;;;10.50;2.50;;;16.70;99.90;;;;;;4994678;28;20453;-71
2022/07/08 07:05:25;;;;;;;5.77;2.37;;;16.80;99.90;;;;;;4994529;28;20446;-71
2022/07/08 07:07:52;;;;;;;7.37;2.10;;;16.80;99.90;;;;;;4995027;28;20422;-72
2022/07/08 07:10:18;;;;;;;8.40;2.10;;;17.00;99.90;;;;;;4994606;28;20451;-72
2022/07/08 07:12:45;;;;;;;9.67;2.33;;;17.00;99.90;;;;;;4994632;28;20774;-71
2022/07/08 07:15:12;;;;;;;7.00;2.43;;;17.10;99.90;;;;;;4994939;28;20474;-72
2022/07/08 07:17:42;;;;;;;6.93;1.90;;;17.20;99.90;;;;;;4994787;28;20529;-72
2022/07/08 07:20:10;;;;;;;6.10;2.30;;;17.30;99.90;;;;;;4994504;28;20850;-72
2022/07/08 07:22:38;;;;;;;5.87;2.33;;;17.60;99.90;;;;;;4993813;28;20868;-72
2022/07/08 07:25:06;;;;;;;7.97;2.20;;;17.80;99.90;;;;;;4994875;28;20490;-72
2022/07/08 07:27:32;;;;;;;4.90;2.10;;;18.20;99.90;;;;;;4994723;28;20422;-72
2022/07/08 07:29:59;;;;;;;4.50;2.10;;;18.50;99.90;;;;;;4994434;28;20493;-72
2022/07/08 07:32:25;;;;;;;2.40;1.97;;;18.60;99.90;;;;;;4994236;28;20498;-72
2022/07/08 07:34:52;;;;;;;6.80;2.30;;;18.40;99.90;;;;;;4994628;28;20508;-72
2022/07/08 07:37:19;;;;;;;10.13;2.53;;;18.30;99.90;;;;;;4994330;28;20460;-72
2022/07/08 07:39:47;;;;;;;9.17;2.30;;;18.20;99.90;;;;;;4994332;28;21009;-71
2022/07/08 07:42:13;;;;;;;8.20;2.53;;;18.20;99.90;;;;;;4993798;28;20458;-72
2022/07/08 07:44:40;;;;;;;5.97;2.30;;;18.20;99.90;;;;;;4993878;28;20434;-71
2022/07/08 07:47:07;;;;;;;7.13;2.30;;;18.50;99.90;;;;;;4994269;28;20450;-71
2022/07/08 07:49:33;;;;;;;4.80;2.47;;;18.70;99.90;;;;;;4994019;28;20455;-73
2022/07/08 07:52:00;;;;;;;7.23;2.00;;;18.70;99.90;;;;;;4994233;28;20426;-71
2022/07/08 07:54:27;;;;;;;6.33;2.10;;;18.50;99.90;;;;;;4993443;28;20948;-71
2022/07/08 07:56:55;;;;;;;9.77;2.40;;;18.50;99.90;;;;;;4993998;28;20455;-71
2022/07/08 07:59:21;;;;;;;6.80;2.33;;;18.40;99.90;;;;;;4993800;28;20463;-73
2022/07/08 08:01:48;;;;;;;11.03;2.23;;;18.30;99.90;;;;;;4994524;28;20426;-71
2022/07/08 08:04:14;;;;;;;11.23;2.63;;;18.30;99.90;;;;;;4993567;28;20820;-71
2022/07/08 08:06:41;;;;;;;5.77;2.27;;;18.40;99.90;;;;;;4994092;28;20502;-71
2022/07/08 08:09:08;;;;;;;4.43;2.20;;;18.40;99.90;;;;;;4993303;28;20459;-71
2022/07/08 08:11:34;;;;;;;7.60;2.37;;;18.50;99.90;;;;;;4993158;28;20459;-72
2022/07/08 08:14:02;;;;;;;6.10;2.20;;;18.40;99.90;;;;;;4993639;28;20851;-71
2022/07/08 08:16:29;;;;;;;15.13;2.70;;;18.50;99.90;;;;;;4993930;28;20479;-71
2022/07/08 08:18:56;;;;;;;7.03;2.20;;;18.40;99.90;;;;;;4993716;28;20455;-71
2022/07/08 08:21:22;;;;;;;5.97;2.57;;;18.30;99.90;;;;;;4993638;28;20451;-71
2022/07/08 08:23:49;;;;;;;9.27;2.63;;;18.40;99.90;;;;;;4993627;28;20622;-71
2022/07/08 08:26:16;;;;;;;6.53;1.93;;;18.40;99.90;;;;;;4993271;28;20896;-72
2022/07/08 08:28:43;;;;;;;5.13;2.50;;;18.50;99.90;;;;;;4993494;28;20493;-71
2022/07/08 08:31:11;;;;;;;5.37;1.93;;;18.60;99.90;;;;;;4993367;28;20502;-71
2022/07/08 08:33:37;;;;;;;4.03;1.90;;;18.80;99.90;;;;;;4993580;28;20447;-71
2022/07/08 08:36:04;;;;;;;6.40;2.30;;;19.20;99.90;;;;;;4992158;28;20526;-71
2022/07/08 08:38:31;;;;;;;7.60;2.27;;;19.40;99.90;;;;;;4977436;28;20505;-71
2022/07/08 08:41:00;;;;;;;4.70;1.90;;;19.50;99.90;;;;;;4993552;28;20459;-71
2022/07/08 08:43:27;;;;;;;6.50;2.73;;;19.40;99.90;;;;;;4992443;28;20490;-72
2022/07/08 08:45:54;;;;;;;4.00;2.00;;;19.30;99.90;;;;;;4993609;28;20529;-72
2022/07/08 08:48:23;;;;;;;7.03;2.23;;;19.20;99.90;;;;;;4992981;28;21134;-72
2022/07/08 08:50:54;;;;;;;2.90;2.30;;;19.20;99.90;;;;;;4992999;28;20505;-71
2022/07/08 08:53:25;;;;;;;7.70;2.30;;;19.10;99.90;;;;;;4992895;28;20542;-72
2022/07/08 08:55:52;;;;;;;5.47;2.27;;;19.10;99.90;;;;;;4993120;28;20481;-71
2022/07/08 08:58:20;;;;;;;7.80;2.43;;;19.30;99.90;;;;;;4992704;28;20504;-71
2022/07/08 09:00:46;;;;;;;6.23;1.80;;;19.50;99.90;;;;;;4992995;28;20500;-71
2022/07/08 09:03:13;;;;;;;9.80;2.30;;;19.80;99.90;;;;;;4992179;28;20479;-71
2022/07/08 09:05:41;;;;;;;6.30;2.00;;;20.30;99.90;;;;;;4973817;28;20526;-71
2022/07/08 09:08:08;;;;;;;4.83;1.60;;;20.70;99.90;;;;;;4974378;28;20500;-72
2022/07/08 09:10:35;;;;;;;7.97;1.83;;;21.10;99.90;;;;;;4992781;28;20451;-71
2022/07/08 09:13:05;;;;;;;9.50;2.70;;;21.40;99.90;;;;;;4992747;28;20505;-71
2022/07/08 09:15:33;;;;;;;6.20;1.83;;;21.80;99.90;;;;;;4988319;28;20510;-71
2022/07/08 09:18:01;;;;;;;5.20;1.90;;;22.00;99.90;;;;;;4992332;28;20451;-71
2022/07/08 09:20:37;;;;;;;5.13;1.80;;;22.10;99.90;;;;;;4992655;28;20888;-71
2022/07/08 09:23:05;;;;;;;4.13;1.90;;;22.10;99.90;;;;;;4992659;28;20486;-71
2022/07/08 09:25:32;;;;;;;6.50;1.77;;;22.40;99.90;;;;;;4992264;28;20545;-72
2022/07/08 09:27:59;;;;;;;11.13;2.03;;;22.60;99.90;;;;;;4992609;28;21119;-71
2022/07/08 09:30:28;;;;;;;7.50;2.00;;;22.50;99.90;;;;;;4991642;28;20894;-71
2022/07/08 09:32:59;;;;;;;5.50;1.90;;;22.80;99.90;;;;;;4992682;28;20530;-73
2022/07/08 09:35:36;;;;;;;4.63;2.00;;;22.80;99.90;;;;;;4992126;28;20483;-73
2022/07/08 09:38:06;;;;;;;13.50;2.00;;;23.00;99.90;;;;;;4991991;28;20538;-73
2022/07/08 09:40:33;;;;;;;5.40;2.10;;;23.20;99.90;;;;;;4992117;28;20522;-73
2022/07/08 09:43:11;;;;;;;5.00;1.97;;;23.40;99.90;;;;;;4992407;28;20537;-72
2022/07/08 09:45:37;;;;;;;5.63;2.00;;;23.50;99.90;;;;;;4991898;28;20996;-73
2022/07/08 09:48:06;;;;;;;7.90;2.00;;;23.70;99.90;;;;;;4992046;28;20870;-73
2022/07/08 09:50:34;;;;;;;5.50;2.07;;;24.00;99.90;;;;;;4992071;28;20475;-73
2022/07/08 09:53:01;;;;;;;6.27;2.27;;;24.20;99.90;;;;;;4992193;28;20454;-73
2022/07/08 09:55:32;;;;;;;5.50;1.70;;;24.30;99.90;;;;;;4992244;28;20466;-73
2022/07/08 09:58:00;;;;;;;9.63;2.40;;;24.50;99.90;;;;;;4991766;28;20928;-72
2022/07/08 10:00:28;;;;;;;6.60;1.83;;;24.40;99.90;;;;;;4992229;28;20509;-72
2022/07/08 10:02:56;;;;;;;6.60;1.70;;;24.20;99.90;;;;;;4991880;28;20507;-73
2022/07/08 10:05:22;;;;;;;5.20;1.97;;;24.20;99.90;;;;;;4991459;28;20531;-72
2022/07/08 10:07:49;;;;;;;4.00;1.70;;;24.30;99.90;;;;;;4992062;28;20455;-72
2022/07/08 10:10:16;;;;;;;3.27;1.67;;;24.20;99.90;;;;;;4992083;28;20455;-72
2022/07/08 10:12:45;;;;;;;3.70;2.03;;;23.80;99.90;;;;;;4992094;28;20447;-73
2022/07/08 10:15:12;;;;;;;8.20;1.77;;;23.80;99.90;;;;;;4991836;28;20479;-72
2022/07/08 10:17:43;;;;;;;4.90;2.13;;;23.70;99.90;;;;;;4991736;28;20443;-72
2022/07/08 10:20:12;;;;;;;10.80;2.10;;;23.50;99.90;;;;;;4992008;28;20486;-73
2022/07/08 10:22:41;;;;;;;6.63;2.13;;;23.10;99.90;;;;;;4991820;28;20982;-72
2022/07/08 10:25:09;;;;;;;7.77;2.00;;;22.90;99.90;;;;;;4991182;28;20542;-70
2022/07/08 10:27:36;;;;;;;6.30;2.20;;;23.10;99.90;;;;;;4991936;28;20518;-71
2022/07/08 10:30:18;;;;;;;5.33;2.07;;;23.30;99.90;;;;;;4991596;28;20463;-71
2022/07/08 10:32:46;;;;;;;7.53;2.43;;;23.80;99.90;;;;;;4991812;28;20872;-71
2022/07/08 10:35:15;;;;;;;10.03;2.20;;;24.00;99.90;;;;;;4991101;28;20498;-71
2022/07/08 10:37:49;;;;;;;4.77;2.00;;;24.30;99.90;;;;;;4991535;28;20459;-71
2022/07/08 10:40:52;;;;;;;3.33;2.10;;;24.60;99.90;;;;;;4991485;28;20967;-71
2022/07/08 10:43:28;;;;;;;2.83;1.70;;;23.90;99.90;;;;;;4991879;28;20485;-72
2022/07/08 10:46:04;;;;;;;5.63;1.80;;;24.00;99.90;;;;;;4991600;28;20471;-72
2022/07/08 10:48:47;;;;;;;7.97;2.40;;;24.30;99.90;;;;;;4991593;28;20553;-72
2022/07/08 10:51:46;;;;;;;11.00;2.67;;;24.80;99.90;;;;;;4991850;28;20462;-72
2022/07/08 10:54:26;;;;;;;7.77;2.03;;;25.20;99.90;;;;;;4988209;28;20567;-72
2022/07/08 10:56:54;;;;;;;9.20;2.83;;;25.20;99.90;;;;;;4986465;28;20511;-72
2022/07/08 10:59:22;;;;;;;6.07;1.90;;;25.50;99.90;;;;;;4994273;28;20517;-73
2022/07/08 11:01:52;;;;;;;7.17;2.70;;;25.80;99.90;;;;;;4994824;28;20598;-72
2022/07/08 11:04:26;;;;;;;5.70;1.90;;;25.90;99.90;;;;;;4995035;28;21009;-72
2022/07/08 11:06:55;;;;;;;9.50;2.20;;;26.20;99.40;;;;;;4994671;28;20587;-72
2022/07/08 11:09:23;;;;;;;5.60;2.03;;;26.40;99.50;;;;;;4995066;28;20495;-72
2022/07/08 11:11:51;;;;;;;4.43;1.43;;;26.40;98.60;;;;;;4994670;28;20959;-72
2022/07/08 11:14:18;;;;;;;5.40;1.60;;;26.40;98.60;;;;;;4994774;28;21006;-72
2022/07/08 11:16:44;;;;;;;5.00;1.80;;;26.60;97.50;;;;;;4994342;28;21061;-72
2022/07/08 11:19:12;;;;;;;5.47;1.80;;;26.90;97.30;;;;;;4995121;28;20514;-72
2022/07/08 11:21:39;;;;;;;5.77;1.90;;;26.90;98.10;;;;;;4994709;28;20456;-72
2022/07/08 11:24:06;;;;;;;3.17;1.70;;;26.90;97.10;;;;;;4993929;28;20482;-72
2022/07/08 11:26:33;;;;;;;6.27;2.10;;;27.00;97.30;;;;;;4994753;28;20475;-72
2022/07/08 11:29:00;;;;;;;2.70;1.70;;;26.90;97.10;;;;;;4994751;28;20513;-72
2022/07/08 11:31:27;;;;;;;5.87;2.10;;;26.90;98.20;;;;;;4994776;28;20517;-72
2022/07/08 11:33:54;;;;;;;6.60;2.37;;;27.00;96.80;;;;;;4994278;28;20978;-72
2022/07/08 11:36:22;;;;;;;3.30;1.73;;;26.90;98.00;;;;;;4993855;28;20471;-72
2022/07/08 11:38:50;;;;;;;6.53;2.00;;;26.70;95.90;;;;;;4994599;28;20506;-72
2022/07/08 11:41:20;;;;;;;7.90;2.10;;;26.20;96.10;;;;;;4994351;28;20451;-72
2022/07/08 11:43:48;;;;;;;7.30;2.00;;;26.10;97.00;;;;;;4980198;28;20489;-72
2022/07/08 11:46:19;;;;;;;3.73;2.13;;;26.20;95.70;;;;;;4994529;28;20499;-72
2022/07/08 11:48:46;;;;;;;6.93;2.20;;;26.20;95.80;;;;;;4994261;28;21018;-72
2022/07/08 11:51:16;;;;;;;3.30;1.73;;;26.50;96.70;;;;;;4994510;28;20482;-72
2022/07/08 11:53:45;;;;;;;3.20;2.00;;;26.80;95.20;;;;;;4994016;28;20444;-72
2022/07/08 11:56:13;;;;;;;5.10;2.20;;;26.60;95.20;;;;;;4994122;28;20478;-72
2022/07/08 11:58:39;;;;;;;3.07;1.67;;;26.60;96.20;;;;;;4994405;28;20440;-72
2022/07/08 12:01:06;;;;;;;6.23;2.20;;;26.90;95.90;;;;;;4993527;28;20884;-72
2022/07/08 12:03:34;;;;;;;4.97;1.47;;;27.10;95.30;;;;;;4994011;28;20887;-71
2022/07/08 12:06:02;;;;;;;10.27;1.90;;;27.30;95.20;;;;;;4993906;28;20475;-72
2022/07/08 12:08:29;;;;;;;6.17;2.20;;;27.60;95.30;;;;;;4993858;28;20492;-72
2022/07/08 12:11:12;;;;;;;8.93;1.90;;;28.00;94.50;;;;;;4993500;28;20877;-72
2022/07/08 12:13:43;;;;;;;5.00;1.80;;;28.30;94.60;;;;;;4993912;28;20524;-72
2022/07/08 12:16:10;;;;;;;1.47;1.37;;;28.60;94.00;;;;;;4993582;28;20549;-72
2022/07/08 12:18:37;;;;;;;4.13;1.67;;;28.80;93.40;;;;;;4977953;28;20811;-72
2022/07/08 12:21:18;;;;;;;12.80;2.17;;;29.00;93.40;;;;;;4993673;28;20455;-72
2022/07/08 12:23:45;;;;;;;4.83;1.63;;;29.10;93.70;;;;;;4993873;28;20493;-72
2022/07/08 12:26:13;;;;;;;5.20;1.90;;;29.20;92.00;;;;;;4992943;28;20998;-72
2022/07/08 12:28:39;;;;;;;8.40;1.87;;;29.00;92.90;;;;;;4993864;28;20457;-72
2022/07/08 12:31:06;;;;;;;8.20;2.43;;;28.80;92.20;;;;;;4993805;28;20447;-72
2022/07/08 12:33:33;;;;;;;4.13;1.70;;;28.70;92.50;;;;;;4993408;28;20502;-72
2022/07/08 12:36:01;;;;;;;6.30;1.90;;;28.80;92.30;;;;;;4993181;28;20538;-71
2022/07/08 12:38:27;;;;;;;5.30;1.70;;;28.80;92.60;;;;;;4993087;28;20459;-72
2022/07/08 12:40:54;;;;;;;3.13;1.63;;;28.90;92.50;;;;;;4993238;28;20947;-71
2022/07/08 12:43:30;;;;;;;5.27;2.13;;;29.20;91.60;;;;;;4992785;28;20455;-72
2022/07/08 12:45:57;;;;;;;5.67;1.63;;;29.40;92.10;;;;;;4993016;28;20495;-72
2022/07/08 12:48:25;;;;;;;9.40;1.70;;;29.60;91.30;;;;;;4993327;28;20503;-72
2022/07/08 12:50:51;;;;;;;3.80;1.70;;;29.40;91.20;;;;;;4992953;28;20489;-72